createdAt,value
2018-03-17T00:01:21.462Z,2.10
2018-03-17T00:03:48.977Z,2.10
2018-03-17T00:06:16.497Z,2.10
2018-03-17T00:08:44.804Z,2.00
2018-03-17T00:11:12.333Z,2.00
2018-03-17T00:13:40.847Z,1.90
2018-03-17T00:16:08.382Z,1.80
2018-03-17T00:18:35.932Z,1.90
2018-03-17T00:21:04.210Z,2.10
2018-03-17T00:23:31.761Z,2.10
2018-03-17T00:26:00.072Z,1.90
2018-03-17T00:28:27.605Z,1.90
2018-03-17T00:30:55.130Z,1.90
2018-03-17T00:33:22.665Z,2.00
2018-03-17T00:35:50.194Z,2.10
2018-03-17T00:38:17.742Z,2.10
2018-03-17T00:40:45.262Z,2.00
2018-03-17T00:43:13.569Z,2.00
2018-03-17T00:45:41.133Z,2.00
2018-03-17T00:48:08.661Z,2.10
2018-03-17T00:50:36.954Z,1.90
2018-03-17T00:53:04.492Z,1.90
2018-03-17T00:55:32.773Z,1.80
2018-03-17T00:58:00.322Z,1.80
2018-03-17T01:00:28.610Z,1.60
2018-03-17T01:02:56.153Z,1.60
2018-03-17T01:05:24.452Z,1.60
2018-03-17T01:07:51.995Z,1.60
2018-03-17T01:10:19.529Z,1.60
2018-03-17T01:12:47.868Z,1.60
2018-03-17T01:15:15.426Z,1.60
2018-03-17T01:17:42.974Z,1.60
2018-03-17T01:20:10.489Z,1.50
2018-03-17T01:22:38.057Z,1.70
2018-03-17T01:25:05.577Z,1.50
2018-03-17T01:27:33.905Z,1.50
2018-03-17T01:30:01.431Z,1.50
2018-03-17T01:32:28.989Z,1.40
2018-03-17T01:34:56.517Z,1.30
2018-03-17T01:37:24.061Z,1.30
2018-03-17T01:39:51.581Z,1.30
2018-03-17T01:42:19.137Z,1.30
2018-03-17T01:44:46.649Z,1.40
2018-03-17T01:47:14.193Z,1.30
2018-03-17T01:49:41.719Z,1.20
2018-03-17T01:52:09.272Z,1.30
2018-03-17T01:54:36.801Z,1.30
2018-03-17T01:57:04.336Z,1.30
2018-03-17T01:59:32.637Z,1.10
2018-03-17T02:02:00.192Z,1.10
2018-03-17T02:04:27.713Z,1.10
2018-03-17T02:06:55.254Z,1.10
2018-03-17T02:09:22.808Z,1.00
2018-03-17T02:11:50.349Z,1.10
2018-03-17T02:14:17.894Z,1.20
2018-03-17T02:16:45.411Z,1.20
2018-03-17T02:19:13.709Z,1.20
2018-03-17T02:21:41.240Z,1.20
2018-03-17T02:24:14.710Z,1.10
2018-03-17T02:26:42.230Z,1.10
2018-03-17T02:29:09.780Z,1.00
2018-03-17T02:31:37.318Z,1.00
2018-03-17T02:34:04.852Z,1.00
2018-03-17T02:36:32.390Z,1.00
2018-03-17T02:38:59.966Z,1.00
2018-03-17T02:41:27.477Z,1.00
2018-03-17T02:43:55.013Z,1.00
2018-03-17T02:46:22.529Z,1.00
2018-03-17T02:48:50.069Z,1.00
2018-03-17T02:51:17.633Z,1.10
2018-03-17T02:53:45.184Z,1.10
2018-03-17T02:56:12.725Z,1.00
2018-03-17T02:58:40.269Z,0.90
2018-03-17T03:01:07.780Z,0.90
2018-03-17T03:03:36.098Z,0.90
2018-03-17T03:06:03.615Z,0.80
2018-03-17T03:08:31.926Z,0.60
2018-03-17T03:10:59.449Z,0.60
2018-03-17T03:13:27.757Z,0.80
2018-03-17T03:15:55.297Z,0.70
2018-03-17T03:18:22.836Z,0.80
2018-03-17T03:20:51.116Z,0.60
2018-03-17T03:23:19.417Z,0.60
2018-03-17T03:25:46.953Z,0.60
2018-03-17T03:28:14.488Z,0.70
2018-03-17T03:30:42.775Z,0.70
2018-03-17T03:33:10.329Z,0.60
2018-03-17T03:35:38.612Z,0.70
2018-03-17T03:38:06.153Z,0.70
2018-03-17T03:40:34.459Z,0.80
2018-03-17T03:43:02.008Z,0.80
2018-03-17T03:45:29.530Z,0.80
2018-03-17T03:47:57.829Z,0.80
2018-03-17T03:50:25.347Z,0.80
2018-03-17T03:52:52.919Z,0.80
2018-03-17T03:55:21.206Z,0.70
2018-03-17T03:57:49.508Z,0.60
2018-03-17T04:00:17.021Z,0.60
2018-03-17T04:02:44.582Z,0.60
2018-03-17T04:05:12.856Z,0.60
2018-03-17T04:07:41.182Z,0.50
2018-03-17T04:10:08.703Z,0.50
2018-03-17T04:12:37.325Z,0.40
2018-03-17T04:15:04.877Z,0.40
2018-03-17T04:17:32.417Z,0.50
2018-03-17T04:19:59.937Z,0.40
2018-03-17T04:22:28.249Z,0.40
2018-03-17T04:24:56.029Z,0.30
2018-03-17T04:27:23.570Z,0.30
2018-03-17T04:29:51.155Z,0.30
2018-03-17T04:32:18.673Z,0.40
2018-03-17T04:34:46.212Z,0.40
2018-03-17T04:37:13.750Z,0.40
2018-03-17T04:39:41.296Z,0.40
2018-03-17T04:42:08.812Z,0.50
2018-03-17T04:44:36.370Z,0.50
2018-03-17T04:47:03.908Z,0.30
2018-03-17T04:49:31.454Z,0.30
2018-03-17T04:51:59.737Z,0.30
2018-03-17T04:54:27.281Z,0.30
2018-03-17T04:56:55.560Z,0.20
2018-03-17T04:59:23.095Z,0.20
2018-03-17T05:01:51.382Z,0.20
2018-03-17T05:04:19.757Z,0.10
2018-03-17T05:06:48.052Z,0.20
2018-03-17T05:09:15.593Z,0.20
2018-03-17T05:11:43.870Z,0.20
2018-03-17T05:14:11.413Z,0.20
2018-03-17T05:16:39.695Z,0.30
2018-03-17T05:19:07.225Z,0.20
2018-03-17T05:21:35.061Z,0.40
2018-03-17T05:24:02.612Z,0.10
2018-03-17T05:26:30.124Z,0.10
2018-03-17T05:28:58.765Z,0.10
2018-03-17T05:31:26.282Z,0.10
2018-03-17T05:33:53.807Z,0.00
2018-03-17T05:36:22.113Z,0.00
2018-03-17T05:38:49.650Z,0.00
2018-03-17T05:41:17.936Z,0.00
2018-03-17T05:43:45.473Z,0.00
2018-03-17T05:46:13.758Z,0.00
2018-03-17T05:48:41.300Z,-0.10
2018-03-17T05:51:09.579Z,-0.10
2018-03-17T05:53:37.881Z,-0.10
2018-03-17T05:56:05.392Z,-0.10
2018-03-17T05:58:32.932Z,0.00
2018-03-17T06:01:00.469Z,0.00
2018-03-17T06:03:28.017Z,-0.20
2018-03-17T06:05:55.543Z,-0.10
2018-03-17T06:08:23.856Z,-0.10
2018-03-17T06:10:51.401Z,-0.10
2018-03-17T06:13:18.971Z,-0.30
2018-03-17T06:15:46.484Z,-0.30
2018-03-17T06:18:14.796Z,-0.20
2018-03-17T06:20:42.321Z,-0.20
2018-03-17T06:23:10.629Z,-0.10
2018-03-17T06:25:38.156Z,-0.10
2018-03-17T06:28:05.704Z,-0.20
2018-03-17T06:30:33.989Z,-0.40
2018-03-17T06:33:01.527Z,-0.40
2018-03-17T06:35:29.066Z,-0.20
2018-03-17T06:37:56.612Z,-0.20
2018-03-17T06:40:24.172Z,-0.30
2018-03-17T06:42:52.496Z,-0.30
2018-03-17T06:45:20.017Z,-0.30
2018-03-17T06:47:48.472Z,-0.30
2018-03-17T06:50:16.015Z,-0.40
2018-03-17T06:52:44.300Z,-0.20
2018-03-17T06:55:11.847Z,-0.10
2018-03-17T06:57:39.371Z,-0.20
2018-03-17T07:00:06.921Z,-0.10
2018-03-17T07:02:34.432Z,0.00
2018-03-17T07:05:01.968Z,0.00
2018-03-17T07:07:29.489Z,-0.10
2018-03-17T07:09:57.029Z,-0.10
2018-03-17T07:12:25.317Z,0.00
2018-03-17T07:14:52.852Z,0.00
2018-03-17T07:17:21.144Z,0.00
2018-03-17T07:19:48.685Z,0.00
2018-03-17T07:22:16.996Z,-0.10
2018-03-17T07:24:44.541Z,-0.10
2018-03-17T07:27:12.064Z,-0.10
2018-03-17T07:29:39.609Z,0.10
2018-03-17T07:32:07.148Z,-0.30
2018-03-17T07:34:34.692Z,-0.20
2018-03-17T07:37:02.219Z,-0.20
2018-03-17T07:39:30.016Z,-0.20
2018-03-17T07:41:58.088Z,-0.10
2018-03-17T07:44:25.625Z,-0.20
2018-03-17T07:46:53.149Z,-0.20
2018-03-17T07:49:20.716Z,-0.20
2018-03-17T07:51:48.231Z,-0.30
2018-03-17T07:54:15.793Z,-0.30
2018-03-17T07:56:43.308Z,-0.20
2018-03-17T07:59:10.856Z,-0.10
2018-03-17T08:01:38.374Z,-0.10
2018-03-17T08:04:06.702Z,-0.10
2018-03-17T08:06:34.220Z,-0.10
2018-03-17T08:09:02.525Z,-0.10
2018-03-17T08:11:30.046Z,-0.10
2018-03-17T08:13:58.349Z,0.10
2018-03-17T08:16:25.856Z,0.00
2018-03-17T08:18:53.393Z,-0.30
2018-03-17T08:21:20.908Z,-0.10
2018-03-17T08:23:48.440Z,0.00
2018-03-17T08:26:16.774Z,-0.10
2018-03-17T08:28:44.323Z,-0.10
2018-03-17T08:31:11.877Z,-0.10
2018-03-17T08:33:39.418Z,0.00
2018-03-17T08:36:06.939Z,0.00
2018-03-17T08:38:35.248Z,0.10
2018-03-17T08:41:02.773Z,0.10
2018-03-17T08:43:31.074Z,0.10
2018-03-17T08:45:58.648Z,0.00
2018-03-17T08:48:26.157Z,0.00
2018-03-17T08:50:54.431Z,0.00
2018-03-17T08:53:22.717Z,-0.10
2018-03-17T08:55:50.519Z,-0.10
2018-03-17T08:58:18.285Z,-0.10
2018-03-17T09:00:45.877Z,-0.20
2018-03-17T09:03:14.172Z,0.00
2018-03-17T09:05:42.491Z,0.00
2018-03-17T09:08:10.028Z,0.00
2018-03-17T09:10:37.557Z,0.10
2018-03-17T09:13:05.841Z,0.00
2018-03-17T09:15:33.373Z,0.00
2018-03-17T09:18:01.657Z,-0.10
2018-03-17T09:20:29.226Z,-0.10
2018-03-17T09:22:56.745Z,-0.10
2018-03-17T09:25:24.581Z,-0.20
2018-03-17T09:27:52.096Z,-0.10
2018-03-17T09:30:19.633Z,-0.10
2018-03-17T09:32:47.907Z,-0.10
2018-03-17T09:35:16.204Z,-0.20
2018-03-17T09:37:43.925Z,-0.20
2018-03-17T09:40:11.473Z,-0.10
2018-03-17T09:42:39.025Z,-0.10
2018-03-17T09:45:06.558Z,-0.10
2018-03-17T09:47:34.065Z,0.00
2018-03-17T09:50:02.362Z,0.00
2018-03-17T09:52:30.164Z,0.00
2018-03-17T09:54:57.706Z,0.00
2018-03-17T09:57:25.260Z,-0.10
2018-03-17T09:59:52.794Z,-0.20
2018-03-17T10:02:20.333Z,-0.10
2018-03-17T10:04:48.687Z,-0.20
2018-03-17T10:07:16.169Z,-0.20
2018-03-17T10:09:44.490Z,-0.20
2018-03-17T10:12:11.997Z,-0.20
2018-03-17T10:14:40.300Z,-0.20
2018-03-17T10:17:07.817Z,-0.20
2018-03-17T10:19:36.116Z,-0.30
2018-03-17T10:22:03.639Z,-0.30
2018-03-17T10:24:31.169Z,-0.30
2018-03-17T10:26:58.701Z,-0.30
2018-03-17T10:29:26.308Z,-0.30
2018-03-17T10:31:53.781Z,-0.30
2018-03-17T10:34:22.088Z,-0.20
2018-03-17T10:36:49.596Z,-0.30
2018-03-17T10:39:17.148Z,-0.20
2018-03-17T10:41:44.669Z,-0.20
2018-03-17T10:44:12.208Z,-0.20
2018-03-17T10:46:39.726Z,-0.20
2018-03-17T10:49:08.033Z,-0.10
2018-03-17T10:51:35.553Z,-0.10
2018-03-17T10:54:03.261Z,-0.30
2018-03-17T10:56:30.801Z,-0.30
2018-03-17T10:58:58.349Z,-0.20
2018-03-17T11:01:25.859Z,-0.30
2018-03-17T11:03:53.413Z,-0.30
2018-03-17T11:06:20.945Z,-0.30
2018-03-17T11:08:48.456Z,-0.30
2018-03-17T11:11:16.063Z,-0.20
2018-03-17T11:13:43.568Z,-0.10
2018-03-17T11:16:11.877Z,-0.20
2018-03-17T11:18:39.397Z,-0.20
2018-03-17T11:21:06.960Z,-0.30
2018-03-17T11:23:35.240Z,-0.40
2018-03-17T11:26:03.586Z,-0.50
2018-03-17T11:28:31.166Z,-0.50
2018-03-17T11:30:58.665Z,-0.60
2018-03-17T11:33:26.176Z,-0.40
2018-03-17T11:35:54.814Z,-0.30
2018-03-17T11:38:22.340Z,-0.30
2018-03-17T11:40:49.885Z,-0.20
2018-03-17T11:43:17.405Z,-0.30
2018-03-17T11:45:44.940Z,-0.40
2018-03-17T11:48:13.221Z,-0.40
2018-03-17T11:50:40.760Z,-0.40
2018-03-17T11:53:08.577Z,-0.40
2018-03-17T11:55:36.880Z,-0.50
2018-03-17T11:58:04.397Z,-0.50
2018-03-17T12:00:31.971Z,-0.50
2018-03-17T12:03:00.248Z,-0.30
2018-03-17T12:05:28.573Z,-0.30
2018-03-17T12:07:56.073Z,-0.40
2018-03-17T12:10:24.366Z,-0.10
2018-03-17T12:12:51.876Z,-0.10
2018-03-17T12:15:19.421Z,0.00
2018-03-17T12:17:46.946Z,0.00
2018-03-17T12:20:14.481Z,-0.10
2018-03-17T12:22:41.998Z,-0.20
2018-03-17T12:25:09.532Z,-0.30
2018-03-17T12:27:37.061Z,-0.30
2018-03-17T12:30:04.625Z,-0.30
2018-03-17T12:32:32.144Z,-0.50
2018-03-17T12:35:00.449Z,-0.70
2018-03-17T12:37:27.979Z,-0.70
2018-03-17T12:39:56.313Z,-0.70
2018-03-17T12:42:23.825Z,-0.70
2018-03-17T12:44:51.357Z,-0.60
2018-03-17T12:47:18.897Z,-0.70
2018-03-17T12:49:46.429Z,-0.70
2018-03-17T12:52:13.953Z,-0.70
2018-03-17T12:54:41.497Z,-0.80
2018-03-17T12:57:09.792Z,-0.70
2018-03-17T12:59:37.324Z,-0.70
2018-03-17T13:02:05.607Z,-0.70
2018-03-17T13:04:33.152Z,-0.70
2018-03-17T13:07:01.441Z,-0.60
2018-03-17T13:09:28.997Z,-0.60
2018-03-17T13:11:56.518Z,-0.60
2018-03-17T13:14:24.850Z,-0.60
2018-03-17T13:16:52.364Z,-0.60
2018-03-17T13:19:31.528Z,-0.70
2018-03-17T13:21:59.047Z,-0.70
2018-03-17T13:24:27.326Z,-0.70
2018-03-17T13:27:07.394Z,-0.60
2018-03-17T13:29:34.928Z,-0.70
2018-03-17T13:32:03.212Z,-0.70
2018-03-17T13:34:31.494Z,-0.70
2018-03-17T13:37:10.849Z,-0.70
2018-03-17T13:39:38.389Z,-0.80
2018-03-17T13:42:05.916Z,-0.70
2018-03-17T13:44:34.198Z,-0.80
2018-03-17T13:47:01.744Z,-0.80
2018-03-17T13:49:30.036Z,-0.60
2018-03-17T13:51:58.340Z,-0.60
2018-03-17T13:54:25.902Z,-0.60
2018-03-17T13:56:53.462Z,-0.70
2018-03-17T13:59:20.982Z,-0.50
2018-03-17T14:01:49.285Z,-0.60
2018-03-17T14:04:16.800Z,-0.60
2018-03-17T14:06:44.373Z,-0.50
2018-03-17T14:09:11.889Z,-0.50
2018-03-17T14:11:39.452Z,-0.70
2018-03-17T14:14:06.968Z,-0.90
2018-03-17T14:16:34.504Z,-0.80
2018-03-17T14:19:02.061Z,-0.80
2018-03-17T14:21:29.612Z,-0.80
2018-03-17T14:23:57.176Z,-0.80
2018-03-17T14:26:24.689Z,-0.80
2018-03-17T14:28:52.235Z,-0.80
2018-03-17T14:31:19.790Z,-0.80
2018-03-17T14:33:47.306Z,-0.80
2018-03-17T14:36:14.845Z,-0.80
2018-03-17T14:38:42.365Z,-0.90
2018-03-17T14:41:09.900Z,-0.90
2018-03-17T14:43:37.703Z,-1.00
2018-03-17T14:46:05.307Z,-1.00
2018-03-17T14:48:32.828Z,-0.90
2018-03-17T14:51:01.142Z,-0.90
2018-03-17T14:53:28.669Z,-0.90
2018-03-17T14:55:56.205Z,-0.90
2018-03-17T14:58:24.484Z,-1.00
2018-03-17T15:00:52.785Z,-1.00
2018-03-17T15:03:20.310Z,-1.00
2018-03-17T15:05:48.617Z,-1.00
2018-03-17T15:08:16.128Z,-1.00
2018-03-17T15:10:43.673Z,-1.20
2018-03-17T15:13:11.202Z,-1.10
2018-03-17T15:15:38.749Z,-1.00
2018-03-17T15:18:06.256Z,-1.00
2018-03-17T15:20:33.801Z,-1.10
2018-03-17T15:23:01.326Z,-0.90
2018-03-17T15:25:28.873Z,-0.90
2018-03-17T15:27:56.384Z,-0.90
2018-03-17T15:30:24.687Z,-0.90
2018-03-17T15:32:52.200Z,-1.00
2018-03-17T15:35:20.054Z,-1.00
2018-03-17T15:37:47.744Z,-1.10
2018-03-17T15:40:16.048Z,-1.10
2018-03-17T15:42:43.561Z,-1.10
2018-03-17T15:45:11.161Z,-1.20
2018-03-17T15:47:38.677Z,-1.00
2018-03-17T15:50:06.217Z,-1.00
2018-03-17T15:52:33.757Z,-0.90
2018-03-17T15:55:01.272Z,-0.90
2018-03-17T15:57:28.812Z,-0.90
2018-03-17T15:59:57.102Z,-1.00
2018-03-17T16:02:24.644Z,-1.10
2018-03-17T16:04:52.206Z,-1.10
2018-03-17T16:07:20.521Z,-1.00
2018-03-17T16:09:48.044Z,-1.10
2018-03-17T16:12:15.576Z,-1.00
2018-03-17T16:14:43.322Z,-1.00
2018-03-17T16:17:10.860Z,-1.10
2018-03-17T16:19:38.422Z,-1.10
2018-03-17T16:22:05.963Z,-1.00
2018-03-17T16:24:33.494Z,-1.00
2018-03-17T16:27:01.033Z,-1.10
2018-03-17T16:29:29.313Z,-1.20
2018-03-17T16:31:57.641Z,-1.30
2018-03-17T16:34:25.152Z,-1.30
2018-03-17T16:36:52.699Z,-1.30
2018-03-17T16:39:20.249Z,-1.40
2018-03-17T16:41:48.547Z,-1.40
2018-03-17T16:44:16.069Z,-1.40
2018-03-17T16:46:44.368Z,-1.40
2018-03-17T16:49:11.882Z,-1.40
2018-03-17T16:51:39.429Z,-1.40
2018-03-17T16:54:06.947Z,-1.50
2018-03-17T16:56:34.482Z,-1.50
2018-03-17T16:59:02.765Z,-1.50
2018-03-17T17:01:30.296Z,-1.50
2018-03-17T17:03:58.592Z,-1.50
2018-03-17T17:06:26.135Z,-1.50
2018-03-17T17:08:54.421Z,-1.60
2018-03-17T17:11:22.006Z,-1.60
2018-03-17T17:13:49.492Z,-1.60
2018-03-17T17:16:17.057Z,-1.50
2018-03-17T17:18:44.582Z,-1.70
2018-03-17T17:21:12.116Z,-1.70
2018-03-17T17:23:39.632Z,-1.60
2018-03-17T17:26:07.165Z,-1.70
2018-03-17T17:28:34.701Z,-1.60
2018-03-17T17:31:02.358Z,-1.60
2018-03-17T17:33:29.873Z,-1.70
2018-03-17T17:35:58.203Z,-1.70
2018-03-17T17:38:25.730Z,-1.70
2018-03-17T17:40:53.273Z,-1.70
2018-03-17T17:43:20.793Z,-1.70
2018-03-17T17:45:48.381Z,-1.80
2018-03-17T17:48:15.865Z,-1.70
2018-03-17T17:50:43.429Z,-1.70
2018-03-17T17:53:11.155Z,-1.60
2018-03-17T17:55:38.713Z,-1.70
2018-03-17T17:58:06.998Z,-1.80
2018-03-17T18:00:34.513Z,-1.80
2018-03-17T18:03:02.052Z,-1.80
2018-03-17T18:05:29.575Z,-1.80
2018-03-17T18:07:57.458Z,-1.80
2018-03-17T18:10:24.973Z,-1.70
2018-03-17T18:12:53.277Z,-1.70
2018-03-17T18:15:20.792Z,-1.70
2018-03-17T18:17:49.097Z,-1.60
2018-03-17T18:20:16.611Z,-1.60
2018-03-17T18:22:44.155Z,-1.60
2018-03-17T18:25:11.655Z,-1.70
2018-03-17T18:27:39.189Z,-1.70
2018-03-17T18:30:07.471Z,-1.70
2018-03-17T18:32:35.786Z,-1.80
2018-03-17T18:35:03.307Z,-1.80
2018-03-17T18:37:30.858Z,-1.70
2018-03-17T18:39:59.137Z,-1.70
2018-03-17T18:42:27.440Z,-1.60
2018-03-17T18:44:54.949Z,-1.60
2018-03-17T18:47:23.597Z,-1.60
2018-03-17T18:49:51.105Z,-1.70
2018-03-17T18:52:18.645Z,-1.80
2018-03-17T18:54:46.928Z,-1.80
2018-03-17T18:57:15.264Z,-1.90
2018-03-17T18:59:42.792Z,-1.90
2018-03-17T19:02:10.333Z,-1.80
2018-03-17T19:04:37.847Z,-1.80
2018-03-17T19:07:05.389Z,-1.80
2018-03-17T19:09:32.912Z,-1.90
2018-03-17T19:12:00.474Z,-1.90
2018-03-17T19:14:28.248Z,-1.90
2018-03-17T19:16:55.791Z,-1.80
2018-03-17T19:19:23.316Z,-1.70
2018-03-17T19:21:51.621Z,-1.80
2018-03-17T19:24:19.175Z,-1.80
2018-03-17T19:26:46.723Z,-1.90
2018-03-17T19:29:14.259Z,-1.80
2018-03-17T19:31:42.565Z,-1.90
2018-03-17T19:34:10.084Z,-1.90
2018-03-17T19:36:38.380Z,-1.80
2018-03-17T19:39:05.896Z,-1.90
2018-03-17T19:41:33.457Z,-1.80
2018-03-17T19:44:01.001Z,-1.80
2018-03-17T19:46:28.536Z,-1.90
2018-03-17T19:48:56.056Z,-1.90
2018-03-17T19:51:23.572Z,-1.80
2018-03-17T19:53:51.113Z,-1.80
2018-03-17T19:56:19.389Z,-1.80
2018-03-17T19:58:46.945Z,-1.80
2018-03-17T20:01:14.461Z,-1.70
2018-03-17T20:03:42.002Z,-1.80
2018-03-17T20:06:10.340Z,-1.90
2018-03-17T20:08:38.181Z,-1.90
2018-03-17T20:11:05.697Z,-1.80
2018-03-17T20:13:33.233Z,-1.80
2018-03-17T20:16:00.744Z,-1.80
2018-03-17T20:18:28.285Z,-1.80
2018-03-17T20:20:56.637Z,-1.70
2018-03-17T20:23:24.948Z,-1.80
2018-03-17T20:25:52.486Z,-1.80
2018-03-17T20:28:20.008Z,-1.70
2018-03-17T20:30:47.544Z,-1.80
2018-03-17T20:33:15.066Z,-1.80
2018-03-17T20:35:42.625Z,-1.70
2018-03-17T20:38:11.415Z,-1.70
2018-03-17T20:40:39.049Z,-1.70
2018-03-17T20:43:06.559Z,-1.90
2018-03-17T20:45:34.088Z,-1.80
2018-03-17T20:48:01.608Z,-1.70
2018-03-17T20:50:29.909Z,-1.80
2018-03-17T20:52:57.425Z,-1.80
2018-03-17T20:55:25.733Z,-1.70
2018-03-17T20:57:53.313Z,-1.70
2018-03-17T21:00:21.566Z,-1.70
2018-03-17T21:02:49.089Z,-1.80
2018-03-17T21:05:17.388Z,-1.80
2018-03-17T21:07:45.129Z,-1.80
2018-03-17T21:10:13.429Z,-1.80
2018-03-17T21:12:40.954Z,-1.80
2018-03-17T21:15:09.271Z,-1.80
2018-03-17T21:17:36.789Z,-1.80
2018-03-17T21:20:04.361Z,-1.80
2018-03-17T21:22:31.880Z,-1.80
2018-03-17T21:24:59.404Z,-1.70
2018-03-17T21:27:26.952Z,-1.80
2018-03-17T21:29:54.466Z,-1.80
2018-03-17T21:32:22.773Z,-1.70
2018-03-17T21:34:50.292Z,-1.80
2018-03-17T21:37:18.602Z,-1.70
2018-03-17T21:39:46.117Z,-1.70
2018-03-17T21:42:13.680Z,-1.70
2018-03-17T21:44:41.985Z,-1.80
2018-03-17T21:47:09.521Z,-1.80
2018-03-17T21:49:37.800Z,-1.70
2018-03-17T21:52:06.136Z,-1.80
2018-03-17T21:54:33.663Z,-1.80
2018-03-17T21:57:01.222Z,-1.80
2018-03-17T21:59:28.734Z,-1.80
2018-03-17T22:01:57.049Z,-1.80
2018-03-17T22:04:24.618Z,-1.80
2018-03-17T22:06:52.153Z,-1.80
2018-03-17T22:09:19.674Z,-1.70
2018-03-17T22:11:47.997Z,-1.80
2018-03-17T22:14:15.588Z,-1.80
2018-03-17T22:16:43.112Z,-1.90
2018-03-17T22:19:10.649Z,-1.90
2018-03-17T22:21:38.169Z,-1.80
2018-03-17T22:24:05.709Z,-1.90
2018-03-17T22:26:33.223Z,-1.80
2018-03-17T22:29:00.760Z,-1.90
2018-03-17T22:31:28.333Z,-1.90
2018-03-17T22:33:55.873Z,-1.90
2018-03-17T22:36:24.499Z,-1.70
2018-03-17T22:38:52.061Z,-1.70
2018-03-17T22:41:19.576Z,-1.60
2018-03-17T22:43:47.112Z,-1.70
2018-03-17T22:46:15.400Z,-1.80
2018-03-17T22:48:42.966Z,-1.90
2018-03-17T22:51:10.521Z,-1.80
2018-03-17T22:53:38.068Z,-1.80
2018-03-17T22:56:05.590Z,-1.80
2018-03-17T22:58:33.145Z,-1.80
2018-03-17T23:01:00.677Z,-1.80
2018-03-17T23:03:28.219Z,-1.80
2018-03-17T23:05:55.758Z,-1.80
2018-03-17T23:08:23.276Z,-1.90
2018-03-17T23:10:50.826Z,-1.90
2018-03-17T23:13:18.354Z,-1.80
2018-03-17T23:15:45.892Z,-1.70
2018-03-17T23:18:13.405Z,-1.80
2018-03-17T23:20:41.712Z,-1.70
2018-03-17T23:23:09.224Z,-1.70
2018-03-17T23:25:36.772Z,-1.70
2018-03-17T23:28:04.304Z,-1.70
2018-03-17T23:30:31.857Z,-1.80
2018-03-17T23:32:59.368Z,-1.90
2018-03-17T23:35:27.673Z,-1.80
2018-03-17T23:37:55.469Z,-1.80
2018-03-17T23:40:23.035Z,-1.80
2018-03-17T23:42:50.612Z,-1.70
2018-03-17T23:45:18.139Z,-1.80
2018-03-17T23:47:45.672Z,-1.80
2018-03-17T23:50:13.188Z,-1.70
2018-03-17T23:52:41.488Z,-1.80
2018-03-17T23:55:09.005Z,-1.80
2018-03-17T23:57:36.555Z,-1.70
